Time;durP1;ratioP1;P1;durP2;ratioP2;P2;SDS_P1;SDS_P2;PMS_P1;PMS_P2;Temp;Humidity;BMP_temperature;BMP_pressure;BME280_temperature;BME280_humidity;BME280_pressure;Samples;Min_cycle;Max_cycle;Signal;HPM_P1;HPM_P2
2023/05/22 14:40:48;;;;;;;13.52;10.98;;;19.30;99.90;;;;;;5111964;27;20124;-39
2023/05/22 14:43:14;;;;;;;15.53;10.23;;;18.90;99.90;;;;;;5095084;27;20044;-39
2023/05/22 14:45:40;;;;;;;13.07;10.35;;;18.80;99.90;;;;;;5117625;27;20459;-39
2023/05/22 14:48:07;;;;;;;16.67;11.35;;;18.80;99.90;;;;;;5099786;28;20031;-39
2023/05/22 14:50:33;;;;;;;14.10;10.52;;;18.70;99.90;;;;;;5118121;27;20130;-39
2023/05/22 14:52:58;;;;;;;14.63;10.95;;;18.60;99.90;;;;;;5119269;27;20125;-39
2023/05/22 14:55:26;;;;;;;13.10;10.88;;;18.60;99.90;;;;;;5115322;27;20049;-39
2023/05/22 14:57:52;;;;;;;10.70;9.40;;;18.50;99.90;;;;;;5118879;27;20043;-40
2023/05/22 15:00:18;;;;;;;17.80;11.60;;;18.40;99.90;;;;;;5116540;27;20473;-39
2023/05/22 15:02:44;;;;;;;13.32;11.40;;;18.30;99.90;;;;;;5116236;27;20565;-39
2023/05/22 15:05:10;;;;;;;12.43;9.63;;;18.30;99.90;;;;;;5115064;27;20043;-39
2023/05/22 15:07:36;;;;;;;15.07;10.75;;;18.30;99.90;;;;;;5129713;27;20051;-39
2023/05/22 15:10:06;;;;;;;16.45;10.15;;;18.30;99.90;;;;;;5115344;27;20051;-39
2023/05/22 15:12:32;;;;;;;14.98;10.15;;;18.30;99.90;;;;;;5117990;27;20050;-39
2023/05/22 15:15:01;;;;;;;12.50;10.15;;;18.30;99.90;;;;;;5112860;27;20127;-40
2023/05/22 15:17:27;;;;;;;14.57;10.63;;;18.30;99.90;;;;;;5118258;27;20159;-40
2023/05/22 15:19:52;;;;;;;15.80;10.30;;;18.40;99.90;;;;;;5114172;27;20349;-40
2023/05/22 15:22:18;;;;;;;12.95;9.93;;;18.30;99.90;;;;;;5109322;28;20177;-40
2023/05/22 15:24:47;;;;;;;12.20;9.60;;;18.40;99.90;;;;;;5112632;27;20043;-39
2023/05/22 15:27:12;;;;;;;15.20;10.70;;;18.30;99.90;;;;;;5111453;28;20118;-39
2023/05/22 15:29:38;;;;;;;13.90;11.05;;;18.30;99.90;;;;;;5113352;27;20190;-39
2023/05/22 15:32:07;;;;;;;15.02;11.18;;;18.40;99.90;;;;;;5115145;27;20126;-39
2023/05/22 15:34:33;;;;;;;14.32;11.32;;;18.40;99.90;;;;;;5111490;28;20165;-37
2023/05/22 15:36:59;;;;;;;13.70;10.57;;;18.30;99.90;;;;;;5117553;27;20553;-38
2023/05/22 15:39:25;;;;;;;16.80;10.93;;;18.30;99.90;;;;;;5111926;27;20409;-37
2023/05/22 15:41:51;;;;;;;13.02;10.52;;;18.40;99.90;;;;;;5117627;27;20492;-38
2023/05/22 15:47:57;;;;;;;11.43;9.63;;;18.40;99.90;;;;;;5111938;27;20068;-37
2023/05/22 15:54:03;;;;;;;21.25;10.27;;;18.40;99.90;;;;;;5084318;27;20062;-40
2023/05/22 15:56:29;;;;;;;14.63;9.48;;;18.40;99.90;;;;;;5097645;27;20114;-40
2023/05/22 15:58:55;;;;;;;11.02;9.93;;;18.30;99.90;;;;;;5082307;28;20498;-40
2023/05/22 16:01:21;;;;;;;14.55;10.43;;;18.30;99.90;;;;;;5100709;28;20032;-39
2023/05/22 16:03:47;;;;;;;14.00;9.45;;;18.30;99.90;;;;;;5103893;27;20045;-40
2023/05/22 16:06:12;;;;;;;14.68;9.57;;;18.30;99.90;;;;;;5090601;27;20350;-40
2023/05/22 16:08:38;;;;;;;11.88;9.88;;;18.30;99.90;;;;;;5089747;28;21052;-40
2023/05/22 16:11:04;;;;;;;11.65;9.05;;;18.20;99.90;;;;;;5082566;28;20506;-41
2023/05/22 16:13:29;;;;;;;12.25;9.43;;;18.20;99.90;;;;;;5082420;27;20035;-40
2023/05/22 16:15:55;;;;;;;10.57;9.02;;;18.20;99.90;;;;;;5101769;27;20071;-40
2023/05/22 16:18:22;;;;;;;11.45;8.55;;;18.20;99.90;;;;;;5097651;28;20028;-40
2023/05/22 16:20:48;;;;;;;10.45;8.35;;;18.10;99.90;;;;;;5093485;28;20088;-40
2023/05/22 16:23:14;;;;;;;10.35;8.57;;;18.20;99.90;;;;;;5103543;28;20039;-40
2023/05/22 16:25:40;;;;;;;10.75;8.60;;;18.20;99.90;;;;;;5104227;28;20035;-40
2023/05/22 16:28:06;;;;;;;12.25;8.00;;;18.20;99.90;;;;;;5086894;28;20038;-40
2023/05/22 16:30:31;;;;;;;8.20;7.32;;;18.30;99.90;;;;;;5106092;28;20040;-40
2023/05/22 16:32:57;;;;;;;9.40;6.97;;;18.20;99.90;;;;;;5101257;28;20458;-40
2023/05/22 16:35:23;;;;;;;10.88;7.38;;;18.30;99.90;;;;;;5104408;27;20035;-41
2023/05/22 16:37:49;;;;;;;9.57;7.32;;;18.30;99.90;;;;;;5125398;27;20401;-40
2023/05/22 16:40:17;;;;;;;9.68;7.20;;;18.20;99.90;;;;;;5098759;28;20052;-40
2023/05/22 16:42:43;;;;;;;11.60;7.82;;;18.20;99.90;;;;;;5104286;28;20104;-40
2023/05/22 16:45:09;;;;;;;11.65;8.20;;;18.10;99.90;;;;;;5105736;28;20386;-41
2023/05/22 16:47:34;;;;;;;9.93;7.90;;;18.10;99.90;;;;;;5086520;28;20036;-41
2023/05/22 16:50:00;;;;;;;13.95;9.13;;;17.90;99.90;;;;;;5103441;28;20040;-40
2023/05/22 16:52:26;;;;;;;11.30;9.15;;;17.90;99.90;;;;;;5105018;28;20046;-40
2023/05/22 16:54:52;;;;;;;12.10;9.15;;;17.80;99.90;;;;;;5102332;28;20854;-40
2023/05/22 16:57:18;;;;;;;14.02;9.35;;;17.70;99.90;;;;;;5074284;28;20039;-39
2023/05/22 16:59:44;;;;;;;10.85;8.40;;;17.60;99.90;;;;;;5085492;28;20044;-39
2023/05/22 17:02:10;;;;;;;12.45;8.98;;;17.50;99.90;;;;;;5082128;28;20096;-40
2023/05/22 17:04:36;;;;;;;11.43;8.75;;;17.40;99.90;;;;;;5060812;28;20078;-40
2023/05/22 17:07:02;;;;;;;15.95;9.50;;;17.30;99.90;;;;;;5100524;28;20060;-39
2023/05/22 17:09:28;;;;;;;11.75;8.35;;;17.20;99.90;;;;;;5102688;28;20814;-40
2023/05/22 17:11:54;;;;;;;12.75;9.10;;;17.10;99.90;;;;;;5103945;28;20123;-40
2023/05/22 17:14:24;;;;;;;12.70;9.10;;;17.10;99.90;;;;;;5092965;28;20127;-40
2023/05/22 17:16:50;;;;;;;13.05;8.18;;;17.10;99.90;;;;;;5098461;28;20094;-40
2023/05/22 17:19:16;;;;;;;14.40;9.00;;;17.10;99.90;;;;;;5106029;27;20472;-40
2023/05/22 17:21:43;;;;;;;11.45;8.93;;;17.10;99.90;;;;;;5085931;28;20048;-40
2023/05/22 17:24:12;;;;;;;12.35;8.25;;;16.90;99.90;;;;;;5074519;28;20044;-40
2023/05/22 17:26:41;;;;;;;11.45;8.38;;;16.80;99.90;;;;;;5089531;28;20430;-40
2023/05/22 17:29:07;;;;;;;13.38;9.07;;;16.70;99.90;;;;;;5094689;27;20040;-40
2023/05/22 17:31:33;;;;;;;13.60;8.00;;;16.70;99.90;;;;;;5096860;27;20106;-40
2023/05/22 17:33:59;;;;;;;10.30;8.38;;;16.80;99.90;;;;;;5098285;27;20748;-40
2023/05/22 17:36:31;;;;;;;13.35;9.18;;;16.70;99.90;;;;;;5100572;27;20313;-40
2023/05/22 17:38:58;;;;;;;13.73;7.95;;;16.70;99.90;;;;;;5073839;27;20057;-39
2023/05/22 17:41:25;;;;;;;10.73;7.70;;;16.70;99.90;;;;;;5139990;27;20393;-40
2023/05/22 17:43:50;;;;;;;;;;;16.90;99.90;;;;;;5131689;27;20027;-40
2023/05/22 17:46:16;;;;;;;9.60;6.55;;;16.80;99.90;;;;;;5132178;27;20305;-40
2023/05/22 17:48:42;;;;;;;8.80;6.50;;;16.70;99.90;;;;;;5124082;27;20480;-40
2023/05/22 17:51:08;;;;;;;9.93;7.22;;;16.70;99.90;;;;;;5131760;27;20047;-41
2023/05/22 17:53:37;;;;;;;9.00;7.10;;;16.60;99.90;;;;;;5138584;27;20024;-40
2023/05/22 17:56:04;;;;;;;8.70;7.15;;;16.60;99.90;;;;;;5124141;27;20504;-41
2023/05/22 17:58:31;;;;;;;11.07;6.45;;;16.60;99.90;;;;;;5141578;27;20046;-40
2023/05/22 18:00:57;;;;;;;9.15;6.78;;;16.50;99.90;;;;;;5139277;27;20062;-40
2023/05/22 18:03:23;;;;;;;10.13;6.75;;;16.40;99.90;;;;;;5110436;27;20026;-40
2023/05/22 18:05:50;;;;;;;10.37;7.53;;;16.30;99.90;;;;;;5129080;27;20114;-40
2023/05/22 18:08:16;;;;;;;8.18;7.28;;;16.30;99.90;;;;;;5120344;27;20125;-39
2023/05/22 18:10:42;;;;;;;8.98;7.25;;;16.30;99.90;;;;;;5118622;27;20055;-40
2023/05/22 18:13:08;;;;;;;7.95;6.80;;;16.30;99.90;;;;;;5123253;27;20493;-41
2023/05/22 18:15:34;;;;;;;10.20;6.77;;;16.30;99.90;;;;;;5138049;27;20837;-40
2023/05/22 18:18:01;;;;;;;10.73;6.82;;;16.20;99.90;;;;;;5125401;27;20079;-40
2023/05/22 18:20:26;;;;;;;8.53;7.00;;;16.20;99.90;;;;;;5132694;27;20114;-41
2023/05/22 18:22:52;;;;;;;8.05;6.30;;;16.20;99.90;;;;;;5132394;27;20552;-40
2023/05/22 18:25:18;;;;;;;9.10;6.97;;;16.20;99.90;;;;;;5120708;27;20046;-40
2023/05/22 18:27:44;;;;;;;7.95;6.32;;;16.10;99.90;;;;;;5136042;27;20027;-40
2023/05/22 18:30:10;;;;;;;8.00;6.75;;;16.10;99.90;;;;;;5133540;27;20418;-40
2023/05/22 18:32:37;;;;;;;9.05;6.38;;;16.00;99.90;;;;;;5121839;27;20129;-40
2023/05/22 18:35:09;;;;;;;8.27;5.88;;;16.00;99.90;;;;;;5137381;27;20043;-40
2023/05/22 18:37:35;;;;;;;10.20;5.72;;;15.90;99.90;;;;;;5114435;27;20042;-40
2023/05/22 18:40:08;;;;;;;7.13;5.55;;;15.90;99.90;;;;;;5116432;27;20384;-40
2023/05/22 18:42:34;;;;;;;8.90;5.95;;;15.90;99.90;;;;;;5113871;28;20071;-40
2023/05/22 18:45:00;;;;;;;7.15;5.55;;;15.80;99.90;;;;;;5101695;28;20049;-40
2023/05/22 18:47:26;;;;;;;7.43;5.47;;;15.70;99.90;;;;;;5091663;28;20063;-40
2023/05/22 18:49:55;;;;;;;8.63;5.75;;;15.70;99.90;;;;;;5100177;28;20436;-40
2023/05/22 18:52:20;;;;;;;7.28;5.93;;;15.70;99.90;;;;;;5099523;28;20059;-40
2023/05/22 18:54:46;;;;;;;7.25;5.65;;;15.60;99.90;;;;;;5100080;28;20464;-40
2023/05/22 18:57:12;;;;;;;8.10;6.07;;;15.60;99.90;;;;;;5097539;28;20116;-40
2023/05/22 18:59:39;;;;;;;7.78;6.70;;;15.50;99.90;;;;;;5101219;28;20572;-40
2023/05/22 19:02:05;;;;;;;10.75;6.68;;;15.50;99.90;;;;;;5097692;28;20035;-40
2023/05/22 19:04:31;;;;;;;9.15;7.30;;;15.40;99.90;;;;;;5094759;28;20442;-40
2023/05/22 19:06:57;;;;;;;9.15;6.70;;;15.40;99.90;;;;;;5099934;28;20396;-40
2023/05/22 19:09:23;;;;;;;9.05;7.00;;;15.40;99.90;;;;;;5093118;28;20579;-40
2023/05/22 19:11:49;;;;;;;9.63;7.22;;;15.30;99.90;;;;;;5083686;28;20048;-41
2023/05/22 19:14:15;;;;;;;10.07;7.93;;;15.30;99.90;;;;;;5095062;28;20495;-40
2023/05/22 19:16:41;;;;;;;10.35;7.47;;;15.30;99.90;;;;;;5101431;28;20042;-40
2023/05/22 19:19:10;;;;;;;9.57;7.75;;;15.20;99.90;;;;;;5102064;28;20127;-40
2023/05/22 19:21:37;;;;;;;10.00;7.72;;;15.20;99.90;;;;;;5100574;28;20047;-40
2023/05/22 19:24:03;;;;;;;11.45;8.73;;;15.20;99.90;;;;;;5101674;28;20089;-40
2023/05/22 19:26:29;;;;;;;9.65;7.82;;;15.20;99.90;;;;;;5103604;28;20051;-40
2023/05/22 19:28:58;;;;;;;9.48;8.07;;;15.20;99.90;;;;;;5100967;28;20096;-41
2023/05/22 19:31:28;;;;;;;11.82;8.35;;;15.20;99.90;;;;;;5101268;28;20040;-40
2023/05/22 19:33:54;;;;;;;11.18;9.80;;;15.20;99.90;;;;;;5108179;28;20046;-40
2023/05/22 19:36:21;;;;;;;10.73;8.63;;;15.10;99.90;;;;;;5096672;28;20126;-41
2023/05/22 19:38:47;;;;;;;10.40;9.25;;;15.10;99.90;;;;;;5111132;27;20427;-40
2023/05/22 19:41:17;;;;;;;10.75;9.63;;;15.10;99.90;;;;;;5116551;27;20662;-40
2023/05/22 19:43:43;;;;;;;13.65;10.13;;;15.10;99.90;;;;;;5127875;27;20031;-40
2023/05/22 19:46:09;;;;;;;12.63;9.87;;;15.10;99.90;;;;;;5137922;27;20413;-40
2023/05/22 19:48:35;;;;;;;13.95;10.45;;;15.10;99.90;;;;;;5143208;27;20452;-39
2023/05/22 19:51:02;;;;;;;12.45;10.43;;;15.10;99.90;;;;;;5138611;27;20043;-39
2023/05/22 19:53:31;;;;;;;12.85;9.85;;;15.00;99.90;;;;;;5143786;27;20387;-40
2023/05/22 19:55:57;;;;;;;10.43;8.68;;;15.00;99.90;;;;;;5145779;27;20123;-39
2023/05/22 19:58:22;;;;;;;11.70;9.13;;;15.00;99.90;;;;;;5110855;27;21054;-39
2023/05/22 20:00:49;;;;;;;11.40;8.75;;;14.90;99.90;;;;;;5126358;27;20071;-40
2023/05/22 20:03:25;;;;;;;12.52;9.05;;;14.80;99.90;;;;;;5144419;27;20115;-39
2023/05/22 20:06:06;;;;;;;13.30;10.23;;;14.80;99.90;;;;;;5142857;27;20310;-40
2023/05/22 20:08:33;;;;;;;12.38;10.18;;;14.70;99.90;;;;;;5136511;27;20026;-40
2023/05/22 20:11:04;;;;;;;14.90;10.68;;;14.70;99.90;;;;;;5126945;27;20082;-39
2023/05/22 20:13:33;;;;;;;12.65;9.88;;;14.60;99.90;;;;;;5136725;27;20039;-40
2023/05/22 20:16:10;;;;;;;15.73;10.68;;;14.60;99.90;;;;;;5124841;27;20039;-40
2023/05/22 20:18:47;;;;;;;13.57;10.88;;;14.50;99.90;;;;;;5139591;27;20039;-40
2023/05/22 20:21:13;;;;;;;16.58;12.00;;;14.40;99.90;;;;;;5122556;27;20047;-40
2023/05/22 20:23:40;;;;;;;17.73;12.50;;;14.40;99.90;;;;;;5122824;27;20031;-39
2023/05/22 20:26:10;;;;;;;;;;;14.30;99.90;;;;;;5124045;27;20073;-39
2023/05/22 20:28:37;;;;;;;15.15;11.43;;;14.30;99.90;;;;;;5129920;27;20392;-41
2023/05/22 20:31:07;;;;;;;15.85;11.18;;;14.20;99.90;;;;;;5138011;27;20106;-39
2023/05/22 20:33:35;;;;;;;19.73;12.05;;;14.20;99.90;;;;;;5145412;27;20042;-41
2023/05/22 20:39:17;;;;;;;19.02;12.13;;;14.20;99.90;;;;;;5137510;27;20116;-39
2023/05/22 20:41:44;;;;;;;19.45;12.90;;;14.10;99.90;;;;;;5137868;27;20449;-40
2023/05/22 20:44:10;;;;;;;21.97;13.97;;;14.10;99.90;;;;;;5119633;27;20139;-40
2023/05/22 20:46:35;;;;;;;21.73;13.77;;;14.00;99.90;;;;;;5148079;27;20474;-39
2023/05/22 20:49:03;;;;;;;20.65;13.57;;;14.00;99.90;;;;;;5121342;27;20447;-40
2023/05/22 20:51:31;;;;;;;21.45;13.60;;;14.00;99.90;;;;;;5146567;27;20043;-40
2023/05/22 20:54:00;;;;;;;20.35;12.43;;;14.00;99.90;;;;;;5139767;27;20220;-39
2023/05/22 20:56:26;;;;;;;15.35;10.88;;;13.90;99.90;;;;;;5127417;27;20066;-39
2023/05/22 20:58:56;;;;;;;15.27;9.52;;;14.00;99.90;;;;;;5142886;27;20152;-39
2023/05/22 21:01:23;;;;;;;12.70;9.10;;;13.90;99.90;;;;;;5147357;27;20113;-39
2023/05/22 21:03:50;;;;;;;14.20;8.85;;;13.90;99.90;;;;;;5147404;27;20401;-40
2023/05/22 21:06:20;;;;;;;10.95;8.23;;;13.90;99.90;;;;;;5147091;27;20030;-39
2023/05/22 21:08:45;;;;;;;11.73;8.80;;;13.90;99.90;;;;;;5127296;27;20038;-40
2023/05/22 21:11:11;;;;;;;12.20;8.18;;;13.80;99.90;;;;;;5138216;27;20178;-40
2023/05/22 21:13:38;;;;;;;9.63;8.23;;;13.90;99.90;;;;;;5140305;27;20043;-39
2023/05/22 21:16:04;;;;;;;10.73;9.15;;;13.90;99.90;;;;;;5147180;27;20062;-39
2023/05/22 21:18:30;;;;;;;13.40;11.07;;;13.90;99.90;;;;;;5125697;27;20035;-39
2023/05/22 21:20:56;;;;;;;16.80;14.05;;;13.90;99.90;;;;;;5143356;27;20146;-40
2023/05/22 21:23:22;;;;;;;18.88;14.35;;;13.90;99.90;;;;;;5142038;27;20137;-39
2023/05/22 21:25:54;;;;;;;20.30;14.52;;;13.80;99.90;;;;;;5144678;27;20052;-39
2023/05/22 21:28:20;;;;;;;21.42;15.70;;;13.90;99.90;;;;;;5135762;27;20031;-40
2023/05/22 21:30:46;;;;;;;19.58;15.70;;;13.80;99.90;;;;;;5135862;27;20043;-39
2023/05/22 21:33:12;;;;;;;20.33;16.00;;;13.80;99.90;;;;;;5146111;27;20400;-40
2023/05/22 21:35:40;;;;;;;17.85;14.68;;;13.80;99.90;;;;;;5139249;27;20039;-40
2023/05/22 21:38:05;;;;;;;;;;;13.80;99.90;;;;;;5127070;27;20034;-39
2023/05/22 21:40:33;;;;;;;21.20;16.23;;;13.80;99.90;;;;;;5144011;27;19973;-40
2023/05/22 21:43:09;;;;;;;19.90;15.43;;;13.80;99.90;;;;;;5128129;27;20403;-40
2023/05/22 21:45:37;;;;;;;20.02;14.00;;;13.70;99.90;;;;;;5143158;27;20050;-39
2023/05/22 21:48:28;;;;;;;20.27;14.82;;;13.80;99.90;;;;;;5142017;27;20035;-39
2023/05/22 21:50:54;;;;;;;22.17;14.60;;;13.70;99.90;;;;;;5110885;27;20050;-39
2023/05/22 21:53:20;;;;;;;17.25;13.10;;;13.70;99.90;;;;;;5140337;27;20047;-39
2023/05/22 21:55:47;;;;;;;18.95;13.82;;;13.70;99.90;;;;;;5115148;27;20037;-39
2023/05/22 21:58:13;;;;;;;19.95;13.18;;;13.70;99.90;;;;;;5147300;27;20053;-40
2023/05/22 22:00:39;;;;;;;20.33;14.63;;;13.70;99.90;;;;;;5138950;27;20042;-40
2023/05/22 22:03:09;;;;;;;21.80;16.50;;;13.70;99.90;;;;;;5136773;27;20492;-39
2023/05/22 22:05:35;;;;;;;24.15;16.30;;;13.70;99.90;;;;;;5145055;27;20039;-39
2023/05/22 22:08:08;;;;;;;25.77;16.45;;;13.60;99.90;;;;;;5125751;27;20043;-39
2023/05/22 22:10:35;;;;;;;25.83;16.42;;;13.60;99.90;;;;;;5127516;27;20035;-39
2023/05/22 22:13:05;;;;;;;23.77;17.02;;;13.60;99.90;;;;;;5145328;27;20045;-40
2023/05/22 22:15:32;;;;;;;25.58;16.45;;;13.60;99.90;;;;;;5144946;27;20122;-39
2023/05/22 22:18:01;;;;;;;24.00;16.30;;;13.60;99.90;;;;;;5129121;27;20123;-39
2023/05/22 22:20:32;;;;;;;25.52;17.02;;;13.60;99.90;;;;;;5127881;27;20111;-39
2023/05/22 22:22:59;;;;;;;25.35;17.23;;;13.60;99.90;;;;;;5147171;27;20042;-40
2023/05/22 22:25:26;;;;;;;25.08;17.40;;;13.60;99.90;;;;;;5145351;27;20276;-39
2023/05/22 22:28:10;;;;;;;26.40;17.27;;;13.60;99.90;;;;;;5146879;27;20042;-40
2023/05/22 22:30:46;;;;;;;27.08;16.58;;;13.60;99.90;;;;;;5144296;27;20464;-40
2023/05/22 22:33:13;;;;;;;28.58;18.02;;;13.60;99.90;;;;;;5123794;27;20034;-39
2023/05/22 22:35:39;;;;;;;27.27;16.45;;;13.60;99.90;;;;;;5142843;27;20122;-39
2023/05/22 22:38:05;;;;;;;38.40;20.65;;;13.70;99.90;;;;;;5122411;27;20528;-40
2023/05/22 22:40:32;;;;;;;38.28;19.85;;;13.60;99.90;;;;;;5125232;27;20103;-40
2023/05/22 22:43:07;;;;;;;33.53;20.50;;;13.60;99.90;;;;;;5129744;27;20035;-39
2023/05/22 22:45:38;;;;;;;41.17;22.50;;;13.60;99.90;;;;;;5137870;27;20116;-40
2023/05/22 22:48:06;;;;;;;36.38;22.70;;;13.60;99.90;;;;;;5129277;27;20043;-39
2023/05/22 22:50:56;;;;;;;43.03;23.40;;;13.50;99.90;;;;;;5136654;27;20046;-39
2023/05/22 22:53:32;;;;;;;48.05;23.98;;;13.50;99.90;;;;;;5136282;27;20250;-40
2023/05/22 22:55:58;;;;;;;45.55;22.67;;;13.50;99.90;;;;;;5141274;27;20050;-40
2023/05/22 22:58:24;;;;;;;42.30;22.23;;;13.40;99.90;;;;;;5146331;27;20033;-39
2023/05/22 23:00:51;;;;;;;40.50;19.40;;;13.40;99.90;;;;;;5145070;27;20050;-39
2023/05/22 23:03:19;;;;;;;41.92;19.90;;;13.40;99.90;;;;;;5137225;27;20551;-39
2023/05/22 23:05:45;;;;;;;40.42;19.17;;;13.40;99.90;;;;;;5124322;27;20054;-40
2023/05/22 23:08:30;;;;;;;45.20;18.90;;;13.30;99.90;;;;;;5134928;27;20032;-40
2023/05/22 23:10:56;;;;;;;37.83;18.85;;;13.30;99.90;;;;;;5139660;27;20058;-39
2023/05/22 23:13:23;;;;;;;47.65;21.08;;;13.30;99.90;;;;;;5125130;27;20370;-40
2023/05/22 23:15:55;;;;;;;35.83;20.55;;;13.30;99.90;;;;;;5148926;27;20047;-40
2023/05/22 23:18:46;;;;;;;38.33;18.83;;;13.30;99.90;;;;;;5148124;27;20078;-39
2023/05/22 23:21:13;;;;;;;40.63;18.83;;;13.30;99.90;;;;;;5136970;27;20081;-40
2023/05/22 23:23:49;;;;;;;39.65;17.33;;;13.40;99.90;;;;;;5078954;27;20078;-40
2023/05/22 23:26:18;;;;;;;32.10;17.60;;;13.40;99.90;;;;;;5146012;27;20049;-39
2023/05/22 23:28:47;;;;;;;33.80;17.38;;;13.40;99.90;;;;;;5141896;27;20346;-39
2023/05/22 23:31:13;;;;;;;32.22;18.02;;;13.40;99.90;;;;;;5128724;27;20563;-40
2023/05/22 23:33:58;;;;;;;36.22;16.60;;;13.40;99.90;;;;;;5121014;27;20049;-39
2023/05/22 23:36:32;;;;;;;30.67;16.10;;;13.50;99.90;;;;;;5144950;27;20065;-39
2023/05/22 23:39:03;;;;;;;27.85;14.10;;;13.40;99.90;;;;;;5127090;27;20070;-38
2023/05/22 23:41:45;;;;;;;27.15;13.32;;;13.40;99.90;;;;;;5147220;27;20053;-39
2023/05/22 23:44:15;;;;;;;30.65;13.88;;;13.40;99.90;;;;;;5143132;27;20126;-40
2023/05/22 23:46:49;;;;;;;28.60;14.55;;;13.40;99.90;;;;;;5147709;27;20045;-39
2023/05/22 23:49:16;;;;;;;29.08;14.32;;;13.40;99.90;;;;;;5129116;27;20576;-40
2023/05/22 23:51:41;;;;;;;27.02;14.52;;;13.40;99.90;;;;;;5148526;27;20038;-39
2023/05/22 23:54:10;;;;;;;22.13;12.77;;;13.40;99.90;;;;;;5148726;27;20137;-39
2023/05/22 23:56:36;;;;;;;21.83;13.57;;;13.40;99.90;;;;;;5138374;27;20087;-40
2023/05/22 23:59:04;;;;;;;22.30;12.02;;;13.40;99.90;;;;;;5127920;27;20188;-39
